sensor_id;sensor_type;location;lat;lon;timestamp;P1;durP1;ratioP1;P2;durP2;ratioP2
1390;SDS011;690;51.454;7.194;2023-12-20T00:01:54;28.10;;;16.67;;
1390;SDS011;690;51.454;7.194;2023-12-20T00:04:21;25.07;;;14.50;;
1390;SDS011;690;51.454;7.194;2023-12-20T00:06:48;29.07;;;16.37;;
1390;SDS011;690;51.454;7.194;2023-12-20T00:09:15;28.10;;;16.60;;
1390;SDS011;690;51.454;7.194;2023-12-20T00:11:44;23.43;;;15.20;;
1390;SDS011;690;51.454;7.194;2023-12-20T00:14:11;27.77;;;14.53;;
1390;SDS011;690;51.454;7.194;2023-12-20T00:16:38;25.17;;;15.10;;
1390;SDS011;690;51.454;7.194;2023-12-20T00:19:05;28.07;;;15.00;;
1390;SDS011;690;51.454;7.194;2023-12-20T00:21:32;20.40;;;13.77;;
1390;SDS011;690;51.454;7.194;2023-12-20T00:23:59;29.50;;;15.40;;
1390;SDS011;690;51.454;7.194;2023-12-20T00:26:26;27.00;;;14.50;;
1390;SDS011;690;51.454;7.194;2023-12-20T00:28:55;18.23;;;12.60;;
1390;SDS011;690;51.454;7.194;2023-12-20T00:31:22;19.70;;;11.30;;
1390;SDS011;690;51.454;7.194;2023-12-20T00:33:49;18.33;;;10.90;;
1390;SDS011;690;51.454;7.194;2023-12-20T00:36:16;15.00;;;9.77;;
1390;SDS011;690;51.454;7.194;2023-12-20T00:38:43;22.33;;;11.30;;
1390;SDS011;690;51.454;7.194;2023-12-20T00:41:09;17.80;;;10.97;;
1390;SDS011;690;51.454;7.194;2023-12-20T00:43:36;13.67;;;8.33;;
1390;SDS011;690;51.454;7.194;2023-12-20T00:46:04;23.90;;;10.00;;
1390;SDS011;690;51.454;7.194;2023-12-20T00:48:31;16.20;;;8.30;;
1390;SDS011;690;51.454;7.194;2023-12-20T00:50:58;13.50;;;8.60;;
1390;SDS011;690;51.454;7.194;2023-12-20T00:53:25;11.20;;;7.47;;
1390;SDS011;690;51.454;7.194;2023-12-20T00:55:52;17.87;;;7.33;;
1390;SDS011;690;51.454;7.194;2023-12-20T00:58:19;13.30;;;7.80;;
1390;SDS011;690;51.454;7.194;2023-12-20T01:00:46;18.03;;;7.37;;
1390;SDS011;690;51.454;7.194;2023-12-20T01:03:14;14.77;;;7.60;;
1390;SDS011;690;51.454;7.194;2023-12-20T01:05:41;12.97;;;7.63;;
1390;SDS011;690;51.454;7.194;2023-12-20T01:08:08;19.97;;;9.23;;
1390;SDS011;690;51.454;7.194;2023-12-20T01:10:35;19.97;;;7.80;;
1390;SDS011;690;51.454;7.194;2023-12-20T01:13:02;14.47;;;7.90;;
1390;SDS011;690;51.454;7.194;2023-12-20T01:15:29;13.73;;;7.30;;
1390;SDS011;690;51.454;7.194;2023-12-20T01:17:56;12.70;;;6.47;;
1390;SDS011;690;51.454;7.194;2023-12-20T01:20:27;14.40;;;7.20;;
1390;SDS011;690;51.454;7.194;2023-12-20T01:22:54;18.17;;;8.67;;
1390;SDS011;690;51.454;7.194;2023-12-20T01:25:21;20.47;;;10.07;;
1390;SDS011;690;51.454;7.194;2023-12-20T01:27:47;12.47;;;6.83;;
1390;SDS011;690;51.454;7.194;2023-12-20T01:30:14;15.13;;;7.10;;
1390;SDS011;690;51.454;7.194;2023-12-20T01:32:41;9.07;;;6.13;;
1390;SDS011;690;51.454;7.194;2023-12-20T01:35:08;14.67;;;8.27;;
1390;SDS011;690;51.454;7.194;2023-12-20T01:37:38;11.23;;;6.27;;
1390;SDS011;690;51.454;7.194;2023-12-20T01:40:06;13.73;;;6.80;;
1390;SDS011;690;51.454;7.194;2023-12-20T01:42:33;11.53;;;6.83;;
1390;SDS011;690;51.454;7.194;2023-12-20T01:45:00;14.23;;;7.97;;
1390;SDS011;690;51.454;7.194;2023-12-20T01:47:27;12.50;;;6.80;;
1390;SDS011;690;51.454;7.194;2023-12-20T01:49:54;12.10;;;6.17;;
1390;SDS011;690;51.454;7.194;2023-12-20T01:52:22;10.47;;;5.90;;
1390;SDS011;690;51.454;7.194;2023-12-20T01:54:51;9.83;;;5.63;;
1390;SDS011;690;51.454;7.194;2023-12-20T01:57:20;13.33;;;5.93;;
1390;SDS011;690;51.454;7.194;2023-12-20T01:59:47;13.47;;;5.80;;
1390;SDS011;690;51.454;7.194;2023-12-20T02:02:14;10.77;;;5.63;;
1390;SDS011;690;51.454;7.194;2023-12-20T02:04:41;12.23;;;5.27;;
1390;SDS011;690;51.454;7.194;2023-12-20T02:07:08;13.67;;;5.80;;
1390;SDS011;690;51.454;7.194;2023-12-20T02:09:36;15.53;;;5.27;;
1390;SDS011;690;51.454;7.194;2023-12-20T02:12:04;13.00;;;4.97;;
1390;SDS011;690;51.454;7.194;2023-12-20T02:14:32;20.83;;;5.90;;
1390;SDS011;690;51.454;7.194;2023-12-20T02:16:59;11.83;;;5.40;;
1390;SDS011;690;51.454;7.194;2023-12-20T02:19:25;12.20;;;5.10;;
1390;SDS011;690;51.454;7.194;2023-12-20T02:22:05;13.90;;;5.63;;
1390;SDS011;690;51.454;7.194;2023-12-20T02:24:33;8.83;;;5.57;;
1390;SDS011;690;51.454;7.194;2023-12-20T02:27:00;12.90;;;5.90;;
1390;SDS011;690;51.454;7.194;2023-12-20T02:29:27;15.73;;;5.30;;
1390;SDS011;690;51.454;7.194;2023-12-20T02:31:54;12.83;;;6.77;;
1390;SDS011;690;51.454;7.194;2023-12-20T02:34:21;11.77;;;5.77;;
1390;SDS011;690;51.454;7.194;2023-12-20T02:36:48;13.27;;;5.40;;
1390;SDS011;690;51.454;7.194;2023-12-20T02:39:16;20.13;;;5.53;;
1390;SDS011;690;51.454;7.194;2023-12-20T02:41:44;11.67;;;6.23;;
1390;SDS011;690;51.454;7.194;2023-12-20T02:44:11;11.47;;;5.73;;
1390;SDS011;690;51.454;7.194;2023-12-20T02:46:38;14.00;;;6.00;;
1390;SDS011;690;51.454;7.194;2023-12-20T02:49:05;16.67;;;5.77;;
1390;SDS011;690;51.454;7.194;2023-12-20T02:51:32;8.60;;;5.17;;
1390;SDS011;690;51.454;7.194;2023-12-20T02:53:59;13.50;;;5.67;;
1390;SDS011;690;51.454;7.194;2023-12-20T02:56:27;10.27;;;4.87;;
1390;SDS011;690;51.454;7.194;2023-12-20T02:58:54;12.00;;;6.07;;
1390;SDS011;690;51.454;7.194;2023-12-20T03:01:21;16.97;;;5.27;;
1390;SDS011;690;51.454;7.194;2023-12-20T03:03:48;13.00;;;5.80;;
1390;SDS011;690;51.454;7.194;2023-12-20T03:06:15;15.50;;;6.37;;
1390;SDS011;690;51.454;7.194;2023-12-20T03:08:43;13.60;;;5.30;;
1390;SDS011;690;51.454;7.194;2023-12-20T03:11:09;11.97;;;6.23;;
1390;SDS011;690;51.454;7.194;2023-12-20T03:13:38;13.37;;;7.20;;
1390;SDS011;690;51.454;7.194;2023-12-20T03:16:07;14.20;;;7.10;;
1390;SDS011;690;51.454;7.194;2023-12-20T03:18:35;12.37;;;7.17;;
1390;SDS011;690;51.454;7.194;2023-12-20T03:21:02;17.90;;;7.20;;
1390;SDS011;690;51.454;7.194;2023-12-20T03:23:29;15.13;;;7.30;;
1390;SDS011;690;51.454;7.194;2023-12-20T03:25:57;13.70;;;8.07;;
1390;SDS011;690;51.454;7.194;2023-12-20T03:28:24;15.50;;;6.90;;
1390;SDS011;690;51.454;7.194;2023-12-20T03:30:53;14.73;;;6.83;;
1390;SDS011;690;51.454;7.194;2023-12-20T03:33:20;17.87;;;7.27;;
1390;SDS011;690;51.454;7.194;2023-12-20T03:35:47;15.83;;;7.53;;
1390;SDS011;690;51.454;7.194;2023-12-20T03:38:14;18.43;;;8.83;;
1390;SDS011;690;51.454;7.194;2023-12-20T03:40:41;15.27;;;8.10;;
1390;SDS011;690;51.454;7.194;2023-12-20T03:43:08;15.27;;;7.03;;
1390;SDS011;690;51.454;7.194;2023-12-20T03:45:35;17.30;;;8.10;;
1390;SDS011;690;51.454;7.194;2023-12-20T03:48:04;24.43;;;9.17;;
1390;SDS011;690;51.454;7.194;2023-12-20T03:50:31;16.93;;;7.80;;
1390;SDS011;690;51.454;7.194;2023-12-20T03:52:58;16.73;;;9.40;;
1390;SDS011;690;51.454;7.194;2023-12-20T03:55:25;19.43;;;7.90;;
1390;SDS011;690;51.454;7.194;2023-12-20T03:57:52;15.77;;;8.33;;
1390;SDS011;690;51.454;7.194;2023-12-20T04:00:19;11.10;;;6.43;;
1390;SDS011;690;51.454;7.194;2023-12-20T04:02:46;11.40;;;6.97;;
1390;SDS011;690;51.454;7.194;2023-12-20T04:05:14;16.87;;;7.20;;
1390;SDS011;690;51.454;7.194;2023-12-20T04:07:43;12.33;;;5.80;;
1390;SDS011;690;51.454;7.194;2023-12-20T04:10:09;10.93;;;5.23;;
1390;SDS011;690;51.454;7.194;2023-12-20T04:12:36;10.57;;;4.67;;
1390;SDS011;690;51.454;7.194;2023-12-20T04:15:03;12.70;;;5.77;;
1390;SDS011;690;51.454;7.194;2023-12-20T04:17:34;10.27;;;4.63;;
1390;SDS011;690;51.454;7.194;2023-12-20T04:20:01;18.80;;;5.60;;
1390;SDS011;690;51.454;7.194;2023-12-20T04:22:29;15.83;;;5.57;;
1390;SDS011;690;51.454;7.194;2023-12-20T04:24:56;12.97;;;5.07;;
1390;SDS011;690;51.454;7.194;2023-12-20T04:27:23;11.83;;;6.70;;
1390;SDS011;690;51.454;7.194;2023-12-20T04:29:50;8.33;;;4.40;;
1390;SDS011;690;51.454;7.194;2023-12-20T04:32:17;12.37;;;5.67;;
1390;SDS011;690;51.454;7.194;2023-12-20T04:34:44;10.40;;;4.40;;
1390;SDS011;690;51.454;7.194;2023-12-20T04:37:10;8.00;;;5.30;;
1390;SDS011;690;51.454;7.194;2023-12-20T04:39:39;21.00;;;5.30;;
1390;SDS011;690;51.454;7.194;2023-12-20T04:42:06;12.90;;;5.10;;
1390;SDS011;690;51.454;7.194;2023-12-20T04:44:33;8.90;;;4.30;;
1390;SDS011;690;51.454;7.194;2023-12-20T04:47:00;11.37;;;5.43;;
1390;SDS011;690;51.454;7.194;2023-12-20T04:49:27;20.63;;;6.57;;
1390;SDS011;690;51.454;7.194;2023-12-20T04:51:54;14.87;;;7.07;;
1390;SDS011;690;51.454;7.194;2023-12-20T04:54:21;15.43;;;6.10;;
1390;SDS011;690;51.454;7.194;2023-12-20T04:56:50;15.57;;;6.10;;
1390;SDS011;690;51.454;7.194;2023-12-20T04:59:17;17.57;;;6.00;;
1390;SDS011;690;51.454;7.194;2023-12-20T05:01:44;13.47;;;7.20;;
1390;SDS011;690;51.454;7.194;2023-12-20T05:04:11;17.47;;;7.00;;
1390;SDS011;690;51.454;7.194;2023-12-20T05:06:37;11.53;;;6.70;;
1390;SDS011;690;51.454;7.194;2023-12-20T05:09:04;21.30;;;8.00;;
1390;SDS011;690;51.454;7.194;2023-12-20T05:11:31;11.13;;;6.60;;
1390;SDS011;690;51.454;7.194;2023-12-20T05:13:59;11.17;;;6.40;;
1390;SDS011;690;51.454;7.194;2023-12-20T05:16:26;16.17;;;6.90;;
1390;SDS011;690;51.454;7.194;2023-12-20T05:18:53;15.03;;;7.53;;
1390;SDS011;690;51.454;7.194;2023-12-20T05:21:21;16.13;;;6.33;;
1390;SDS011;690;51.454;7.194;2023-12-20T05:23:48;19.37;;;7.80;;
1390;SDS011;690;51.454;7.194;2023-12-20T05:26:15;21.77;;;7.63;;
1390;SDS011;690;51.454;7.194;2023-12-20T05:28:41;17.10;;;6.77;;
1390;SDS011;690;51.454;7.194;2023-12-20T05:31:10;17.07;;;6.70;;
1390;SDS011;690;51.454;7.194;2023-12-20T05:33:36;21.53;;;7.70;;
1390;SDS011;690;51.454;7.194;2023-12-20T05:36:04;15.77;;;7.63;;
1390;SDS011;690;51.454;7.194;2023-12-20T05:38:34;18.93;;;7.80;;
1390;SDS011;690;51.454;7.194;2023-12-20T05:41:01;19.33;;;8.13;;
1390;SDS011;690;51.454;7.194;2023-12-20T05:43:28;16.90;;;7.40;;
1390;SDS011;690;51.454;7.194;2023-12-20T05:45:55;11.47;;;7.43;;
1390;SDS011;690;51.454;7.194;2023-12-20T05:48:24;17.77;;;7.60;;
1390;SDS011;690;51.454;7.194;2023-12-20T05:50:51;13.60;;;6.50;;
1390;SDS011;690;51.454;7.194;2023-12-20T05:53:18;16.23;;;7.03;;
1390;SDS011;690;51.454;7.194;2023-12-20T05:55:45;20.67;;;6.07;;
1390;SDS011;690;51.454;7.194;2023-12-20T05:58:12;18.63;;;6.50;;
1390;SDS011;690;51.454;7.194;2023-12-20T06:00:38;9.87;;;6.03;;
1390;SDS011;690;51.454;7.194;2023-12-20T06:03:05;22.97;;;7.27;;
1390;SDS011;690;51.454;7.194;2023-12-20T06:05:34;14.00;;;5.80;;
1390;SDS011;690;51.454;7.194;2023-12-20T06:08:00;12.67;;;6.57;;
1390;SDS011;690;51.454;7.194;2023-12-20T06:10:28;14.63;;;6.60;;
1390;SDS011;690;51.454;7.194;2023-12-20T06:12:55;14.10;;;6.83;;
1390;SDS011;690;51.454;7.194;2023-12-20T06:15:23;20.03;;;7.00;;
1390;SDS011;690;51.454;7.194;2023-12-20T06:17:50;16.73;;;6.20;;
1390;SDS011;690;51.454;7.194;2023-12-20T06:20:17;20.83;;;7.43;;
1390;SDS011;690;51.454;7.194;2023-12-20T06:22:45;14.53;;;7.50;;
1390;SDS011;690;51.454;7.194;2023-12-20T06:25:12;10.23;;;5.23;;
1390;SDS011;690;51.454;7.194;2023-12-20T06:27:39;12.80;;;6.37;;
1390;SDS011;690;51.454;7.194;2023-12-20T06:30:06;16.23;;;5.90;;
1390;SDS011;690;51.454;7.194;2023-12-20T06:32:34;11.80;;;6.73;;
1390;SDS011;690;51.454;7.194;2023-12-20T06:35:03;15.27;;;5.90;;
1390;SDS011;690;51.454;7.194;2023-12-20T06:37:31;17.63;;;6.73;;
1390;SDS011;690;51.454;7.194;2023-12-20T06:39:59;10.50;;;5.57;;
1390;SDS011;690;51.454;7.194;2023-12-20T06:42:26;9.83;;;5.30;;
1390;SDS011;690;51.454;7.194;2023-12-20T06:44:53;15.27;;;6.20;;
1390;SDS011;690;51.454;7.194;2023-12-20T06:47:19;13.70;;;5.30;;
1390;SDS011;690;51.454;7.194;2023-12-20T06:49:46;19.20;;;6.30;;
1390;SDS011;690;51.454;7.194;2023-12-20T06:52:14;13.37;;;6.40;;
1390;SDS011;690;51.454;7.194;2023-12-20T06:54:40;14.40;;;5.70;;
1390;SDS011;690;51.454;7.194;2023-12-20T06:57:09;13.10;;;6.33;;
1390;SDS011;690;51.454;7.194;2023-12-20T06:59:38;22.27;;;6.77;;
1390;SDS011;690;51.454;7.194;2023-12-20T07:02:05;15.23;;;6.07;;
1390;SDS011;690;51.454;7.194;2023-12-20T07:04:33;10.13;;;5.60;;
1390;SDS011;690;51.454;7.194;2023-12-20T07:07:00;16.20;;;6.80;;
1390;SDS011;690;51.454;7.194;2023-12-20T07:09:27;10.53;;;6.53;;
1390;SDS011;690;51.454;7.194;2023-12-20T07:11:54;15.63;;;6.60;;
1390;SDS011;690;51.454;7.194;2023-12-20T07:14:22;14.67;;;6.83;;
1390;SDS011;690;51.454;7.194;2023-12-20T07:16:49;16.37;;;6.80;;
1390;SDS011;690;51.454;7.194;2023-12-20T07:19:16;16.50;;;7.80;;
1390;SDS011;690;51.454;7.194;2023-12-20T07:21:43;11.27;;;5.87;;
1390;SDS011;690;51.454;7.194;2023-12-20T07:24:10;13.03;;;6.07;;
1390;SDS011;690;51.454;7.194;2023-12-20T07:26:37;19.60;;;8.00;;
1390;SDS011;690;51.454;7.194;2023-12-20T07:29:05;20.43;;;7.13;;
1390;SDS011;690;51.454;7.194;2023-12-20T07:31:33;20.53;;;7.77;;
1390;SDS011;690;51.454;7.194;2023-12-20T07:34:00;10.70;;;6.03;;
1390;SDS011;690;51.454;7.194;2023-12-20T07:36:27;19.13;;;6.83;;
1390;SDS011;690;51.454;7.194;2023-12-20T07:38:53;12.47;;;5.73;;
1390;SDS011;690;51.454;7.194;2023-12-20T07:41:20;11.73;;;5.03;;
1390;SDS011;690;51.454;7.194;2023-12-20T07:43:48;15.83;;;6.80;;
1390;SDS011;690;51.454;7.194;2023-12-20T07:46:15;12.63;;;6.13;;
1390;SDS011;690;51.454;7.194;2023-12-20T07:48:44;19.80;;;6.47;;
1390;SDS011;690;51.454;7.194;2023-12-20T07:51:11;14.97;;;6.57;;
1390;SDS011;690;51.454;7.194;2023-12-20T07:53:38;12.93;;;6.10;;
1390;SDS011;690;51.454;7.194;2023-12-20T07:56:13;19.77;;;6.47;;
1390;SDS011;690;51.454;7.194;2023-12-20T07:58:40;12.93;;;5.83;;
1390;SDS011;690;51.454;7.194;2023-12-20T08:01:07;9.90;;;5.40;;
1390;SDS011;690;51.454;7.194;2023-12-20T08:03:34;19.10;;;7.07;;
1390;SDS011;690;51.454;7.194;2023-12-20T08:08:31;12.37;;;6.03;;
1390;SDS011;690;51.454;7.194;2023-12-20T08:10:58;14.73;;;6.50;;
1390;SDS011;690;51.454;7.194;2023-12-20T08:13:25;15.87;;;6.40;;
1390;SDS011;690;51.454;7.194;2023-12-20T08:15:52;17.23;;;5.50;;
1390;SDS011;690;51.454;7.194;2023-12-20T08:18:21;13.53;;;5.90;;
1390;SDS011;690;51.454;7.194;2023-12-20T08:20:48;10.03;;;5.90;;
1390;SDS011;690;51.454;7.194;2023-12-20T08:23:19;14.73;;;7.10;;
1390;SDS011;690;51.454;7.194;2023-12-20T08:25:46;16.27;;;6.53;;
1390;SDS011;690;51.454;7.194;2023-12-20T08:28:14;13.27;;;5.90;;
1390;SDS011;690;51.454;7.194;2023-12-20T08:30:41;13.60;;;6.70;;
1390;SDS011;690;51.454;7.194;2023-12-20T08:33:08;12.70;;;4.80;;
1390;SDS011;690;51.454;7.194;2023-12-20T08:35:38;12.17;;;5.90;;
1390;SDS011;690;51.454;7.194;2023-12-20T08:38:05;12.37;;;6.20;;
1390;SDS011;690;51.454;7.194;2023-12-20T08:40:33;16.33;;;6.53;;
1390;SDS011;690;51.454;7.194;2023-12-20T08:43:00;23.13;;;8.70;;
1390;SDS011;690;51.454;7.194;2023-12-20T08:45:27;14.17;;;5.43;;
1390;SDS011;690;51.454;7.194;2023-12-20T08:47:54;19.73;;;6.67;;
1390;SDS011;690;51.454;7.194;2023-12-20T08:50:21;9.43;;;5.03;;
1390;SDS011;690;51.454;7.194;2023-12-20T08:52:48;10.10;;;6.47;;
1390;SDS011;690;51.454;7.194;2023-12-20T08:55:15;10.83;;;5.70;;
1390;SDS011;690;51.454;7.194;2023-12-20T08:57:44;10.77;;;5.57;;
1390;SDS011;690;51.454;7.194;2023-12-20T09:00:12;8.80;;;5.90;;
1390;SDS011;690;51.454;7.194;2023-12-20T09:02:39;13.50;;;6.50;;
1390;SDS011;690;51.454;7.194;2023-12-20T09:05:07;16.30;;;5.80;;
1390;SDS011;690;51.454;7.194;2023-12-20T09:07:35;14.20;;;5.57;;
1390;SDS011;690;51.454;7.194;2023-12-20T09:10:02;11.93;;;5.17;;
1390;SDS011;690;51.454;7.194;2023-12-20T09:12:29;10.80;;;6.53;;
1390;SDS011;690;51.454;7.194;2023-12-20T09:14:57;22.27;;;5.43;;
1390;SDS011;690;51.454;7.194;2023-12-20T09:17:24;9.17;;;4.60;;
1390;SDS011;690;51.454;7.194;2023-12-20T09:19:51;15.27;;;6.00;;
1390;SDS011;690;51.454;7.194;2023-12-20T09:22:19;13.40;;;4.90;;
1390;SDS011;690;51.454;7.194;2023-12-20T09:24:46;10.83;;;5.17;;
1390;SDS011;690;51.454;7.194;2023-12-20T09:27:12;11.00;;;5.33;;
1390;SDS011;690;51.454;7.194;2023-12-20T09:29:39;19.23;;;6.97;;
1390;SDS011;690;51.454;7.194;2023-12-20T09:32:07;10.57;;;5.10;;
1390;SDS011;690;51.454;7.194;2023-12-20T09:34:34;19.20;;;5.70;;
1390;SDS011;690;51.454;7.194;2023-12-20T09:37:02;12.27;;;5.00;;
1390;SDS011;690;51.454;7.194;2023-12-20T09:39:30;11.53;;;4.87;;
1390;SDS011;690;51.454;7.194;2023-12-20T09:42:00;10.50;;;5.27;;
1390;SDS011;690;51.454;7.194;2023-12-20T09:44:29;15.87;;;4.80;;
1390;SDS011;690;51.454;7.194;2023-12-20T09:46:57;14.47;;;5.67;;
1390;SDS011;690;51.454;7.194;2023-12-20T09:49:25;15.80;;;6.20;;
1390;SDS011;690;51.454;7.194;2023-12-20T09:51:54;16.37;;;5.80;;
1390;SDS011;690;51.454;7.194;2023-12-20T09:54:22;9.37;;;5.77;;
1390;SDS011;690;51.454;7.194;2023-12-20T09:56:50;9.90;;;4.67;;
1390;SDS011;690;51.454;7.194;2023-12-20T09:59:17;9.50;;;4.60;;
1390;SDS011;690;51.454;7.194;2023-12-20T10:01:44;11.70;;;4.40;;
1390;SDS011;690;51.454;7.194;2023-12-20T10:04:12;15.83;;;6.13;;
1390;SDS011;690;51.454;7.194;2023-12-20T10:06:41;19.30;;;4.73;;
1390;SDS011;690;51.454;7.194;2023-12-20T10:09:09;9.53;;;4.80;;
1390;SDS011;690;51.454;7.194;2023-12-20T10:11:39;12.47;;;5.27;;
1390;SDS011;690;51.454;7.194;2023-12-20T10:14:06;16.03;;;4.90;;
1390;SDS011;690;51.454;7.194;2023-12-20T10:16:33;8.37;;;3.67;;
1390;SDS011;690;51.454;7.194;2023-12-20T10:19:00;8.77;;;4.67;;
1390;SDS011;690;51.454;7.194;2023-12-20T10:21:27;8.77;;;5.07;;
1390;SDS011;690;51.454;7.194;2023-12-20T10:23:56;10.50;;;4.30;;
1390;SDS011;690;51.454;7.194;2023-12-20T10:26:24;11.07;;;4.73;;
1390;SDS011;690;51.454;7.194;2023-12-20T10:28:53;12.40;;;5.33;;
1390;SDS011;690;51.454;7.194;2023-12-20T10:31:27;8.83;;;4.47;;
1390;SDS011;690;51.454;7.194;2023-12-20T10:33:55;8.80;;;4.87;;
1390;SDS011;690;51.454;7.194;2023-12-20T10:36:23;14.97;;;5.03;;
1390;SDS011;690;51.454;7.194;2023-12-20T10:38:52;16.03;;;5.30;;
1390;SDS011;690;51.454;7.194;2023-12-20T10:41:23;12.43;;;5.20;;
1390;SDS011;690;51.454;7.194;2023-12-20T10:43:53;10.73;;;4.80;;
1390;SDS011;690;51.454;7.194;2023-12-20T10:46:24;10.97;;;5.30;;
1390;SDS011;690;51.454;7.194;2023-12-20T10:48:53;16.27;;;5.70;;
1390;SDS011;690;51.454;7.194;2023-12-20T10:51:21;13.00;;;4.50;;
1390;SDS011;690;51.454;7.194;2023-12-20T10:53:49;12.17;;;5.90;;
1390;SDS011;690;51.454;7.194;2023-12-20T10:56:17;12.00;;;5.73;;
1390;SDS011;690;51.454;7.194;2023-12-20T10:58:46;15.73;;;4.93;;
1390;SDS011;690;51.454;7.194;2023-12-20T11:01:14;10.63;;;6.80;;
1390;SDS011;690;51.454;7.194;2023-12-20T11:03:44;13.13;;;5.37;;
1390;SDS011;690;51.454;7.194;2023-12-20T11:06:18;16.90;;;6.10;;
1390;SDS011;690;51.454;7.194;2023-12-20T11:09:03;9.90;;;4.70;;
1390;SDS011;690;51.454;7.194;2023-12-20T11:11:40;8.33;;;5.47;;
1390;SDS011;690;51.454;7.194;2023-12-20T11:14:18;10.93;;;5.47;;
1390;SDS011;690;51.454;7.194;2023-12-20T11:16:49;10.80;;;5.70;;
1390;SDS011;690;51.454;7.194;2023-12-20T11:19:17;12.63;;;6.00;;
1390;SDS011;690;51.454;7.194;2023-12-20T11:21:44;17.67;;;5.97;;
1390;SDS011;690;51.454;7.194;2023-12-20T11:24:12;10.03;;;5.20;;
1390;SDS011;690;51.454;7.194;2023-12-20T11:26:41;15.53;;;5.67;;
1390;SDS011;690;51.454;7.194;2023-12-20T11:29:32;19.37;;;7.73;;
1390;SDS011;690;51.454;7.194;2023-12-20T11:32:00;15.57;;;5.73;;
1390;SDS011;690;51.454;7.194;2023-12-20T11:34:51;9.00;;;4.63;;
1390;SDS011;690;51.454;7.194;2023-12-20T11:37:20;12.13;;;5.10;;
1390;SDS011;690;51.454;7.194;2023-12-20T11:39:53;16.30;;;6.80;;
1390;SDS011;690;51.454;7.194;2023-12-20T11:42:21;10.07;;;5.97;;
1390;SDS011;690;51.454;7.194;2023-12-20T11:44:49;11.73;;;6.50;;
1390;SDS011;690;51.454;7.194;2023-12-20T11:47:17;13.33;;;6.40;;
1390;SDS011;690;51.454;7.194;2023-12-20T11:49:46;8.90;;;5.37;;
1390;SDS011;690;51.454;7.194;2023-12-20T11:52:14;13.83;;;6.70;;
1390;SDS011;690;51.454;7.194;2023-12-20T11:54:41;14.23;;;6.13;;
1390;SDS011;690;51.454;7.194;2023-12-20T11:57:07;11.83;;;6.00;;
1390;SDS011;690;51.454;7.194;2023-12-20T11:59:35;15.87;;;6.17;;
1390;SDS011;690;51.454;7.194;2023-12-20T12:02:04;14.80;;;6.50;;
1390;SDS011;690;51.454;7.194;2023-12-20T12:04:31;11.13;;;6.40;;
1390;SDS011;690;51.454;7.194;2023-12-20T12:06:58;11.37;;;6.03;;
1390;SDS011;690;51.454;7.194;2023-12-20T12:09:25;10.70;;;6.00;;
1390;SDS011;690;51.454;7.194;2023-12-20T12:11:52;12.50;;;4.97;;
1390;SDS011;690;51.454;7.194;2023-12-20T12:14:19;13.03;;;5.53;;
1390;SDS011;690;51.454;7.194;2023-12-20T12:16:46;11.17;;;5.90;;
1390;SDS011;690;51.454;7.194;2023-12-20T12:19:22;11.20;;;5.73;;
1390;SDS011;690;51.454;7.194;2023-12-20T12:21:49;10.87;;;5.80;;
1390;SDS011;690;51.454;7.194;2023-12-20T12:24:19;17.90;;;5.30;;
1390;SDS011;690;51.454;7.194;2023-12-20T12:26:49;13.40;;;5.80;;
1390;SDS011;690;51.454;7.194;2023-12-20T12:29:17;16.77;;;5.50;;
1390;SDS011;690;51.454;7.194;2023-12-20T12:31:43;13.57;;;5.83;;
1390;SDS011;690;51.454;7.194;2023-12-20T12:34:10;8.30;;;5.83;;
1390;SDS011;690;51.454;7.194;2023-12-20T12:36:39;14.03;;;6.03;;
1390;SDS011;690;51.454;7.194;2023-12-20T12:39:06;14.80;;;6.10;;
1390;SDS011;690;51.454;7.194;2023-12-20T12:41:33;15.37;;;6.50;;
1390;SDS011;690;51.454;7.194;2023-12-20T12:44:00;11.17;;;5.87;;
1390;SDS011;690;51.454;7.194;2023-12-20T12:46:27;11.03;;;5.87;;
1390;SDS011;690;51.454;7.194;2023-12-20T12:48:54;17.20;;;6.20;;
1390;SDS011;690;51.454;7.194;2023-12-20T12:51:21;9.50;;;5.60;;
1390;SDS011;690;51.454;7.194;2023-12-20T12:53:49;11.40;;;5.80;;
1390;SDS011;690;51.454;7.194;2023-12-20T12:56:16;12.43;;;6.37;;
1390;SDS011;690;51.454;7.194;2023-12-20T12:58:43;18.50;;;8.30;;
1390;SDS011;690;51.454;7.194;2023-12-20T13:01:10;13.60;;;6.93;;
1390;SDS011;690;51.454;7.194;2023-12-20T13:03:37;11.23;;;5.60;;
1390;SDS011;690;51.454;7.194;2023-12-20T13:06:05;12.80;;;6.00;;
1390;SDS011;690;51.454;7.194;2023-12-20T13:08:34;10.83;;;6.70;;
1390;SDS011;690;51.454;7.194;2023-12-20T13:11:02;11.97;;;6.20;;
1390;SDS011;690;51.454;7.194;2023-12-20T13:13:29;14.10;;;6.30;;
1390;SDS011;690;51.454;7.194;2023-12-20T13:15:56;14.50;;;6.47;;
1390;SDS011;690;51.454;7.194;2023-12-20T13:18:23;10.50;;;5.80;;
1390;SDS011;690;51.454;7.194;2023-12-20T13:20:50;12.30;;;6.20;;
1390;SDS011;690;51.454;7.194;2023-12-20T13:23:17;9.97;;;5.40;;
1390;SDS011;690;51.454;7.194;2023-12-20T13:25:44;13.97;;;6.23;;
1390;SDS011;690;51.454;7.194;2023-12-20T13:28:13;10.03;;;5.60;;
1390;SDS011;690;51.454;7.194;2023-12-20T13:30:40;13.00;;;4.93;;
1390;SDS011;690;51.454;7.194;2023-12-20T13:33:07;12.40;;;6.17;;
1390;SDS011;690;51.454;7.194;2023-12-20T13:35:34;9.60;;;5.43;;
1390;SDS011;690;51.454;7.194;2023-12-20T13:38:01;15.83;;;6.60;;
1390;SDS011;690;51.454;7.194;2023-12-20T13:40:30;13.67;;;5.10;;
1390;SDS011;690;51.454;7.194;2023-12-20T13:42:57;10.77;;;6.30;;
1390;SDS011;690;51.454;7.194;2023-12-20T13:45:25;11.10;;;5.60;;
1390;SDS011;690;51.454;7.194;2023-12-20T13:47:52;14.00;;;5.23;;
1390;SDS011;690;51.454;7.194;2023-12-20T13:50:19;13.00;;;5.77;;
1390;SDS011;690;51.454;7.194;2023-12-20T13:52:47;11.33;;;6.87;;
1390;SDS011;690;51.454;7.194;2023-12-20T13:55:13;9.90;;;5.60;;
1390;SDS011;690;51.454;7.194;2023-12-20T13:57:41;10.10;;;6.10;;
1390;SDS011;690;51.454;7.194;2023-12-20T14:00:08;11.07;;;5.67;;
1390;SDS011;690;51.454;7.194;2023-12-20T14:02:41;7.67;;;5.90;;
1390;SDS011;690;51.454;7.194;2023-12-20T14:05:08;11.90;;;6.47;;
1390;SDS011;690;51.454;7.194;2023-12-20T14:07:36;7.53;;;5.83;;
1390;SDS011;690;51.454;7.194;2023-12-20T14:10:03;11.47;;;7.17;;
1390;SDS011;690;51.454;7.194;2023-12-20T14:12:31;11.10;;;6.60;;
1390;SDS011;690;51.454;7.194;2023-12-20T14:15:01;11.77;;;7.93;;
1390;SDS011;690;51.454;7.194;2023-12-20T14:17:28;19.37;;;7.80;;
1390;SDS011;690;51.454;7.194;2023-12-20T14:19:58;14.20;;;7.13;;
1390;SDS011;690;51.454;7.194;2023-12-20T14:22:25;15.37;;;7.70;;
1390;SDS011;690;51.454;7.194;2023-12-20T14:24:54;15.67;;;7.27;;
1390;SDS011;690;51.454;7.194;2023-12-20T14:27:22;8.47;;;6.63;;
1390;SDS011;690;51.454;7.194;2023-12-20T14:29:49;15.93;;;8.00;;
1390;SDS011;690;51.454;7.194;2023-12-20T14:32:16;14.77;;;7.40;;
1390;SDS011;690;51.454;7.194;2023-12-20T14:34:43;16.73;;;7.87;;
1390;SDS011;690;51.454;7.194;2023-12-20T14:37:11;14.13;;;8.00;;
1390;SDS011;690;51.454;7.194;2023-12-20T14:39:39;10.70;;;7.90;;
1390;SDS011;690;51.454;7.194;2023-12-20T14:42:06;8.63;;;7.27;;
1390;SDS011;690;51.454;7.194;2023-12-20T14:44:36;12.33;;;7.10;;
1390;SDS011;690;51.454;7.194;2023-12-20T14:47:03;12.00;;;7.10;;
1390;SDS011;690;51.454;7.194;2023-12-20T14:49:30;14.03;;;7.70;;
1390;SDS011;690;51.454;7.194;2023-12-20T14:51:57;11.80;;;6.83;;
1390;SDS011;690;51.454;7.194;2023-12-20T14:54:26;13.63;;;7.20;;
1390;SDS011;690;51.454;7.194;2023-12-20T14:56:53;15.10;;;7.43;;
1390;SDS011;690;51.454;7.194;2023-12-20T14:59:20;13.50;;;6.70;;
1390;SDS011;690;51.454;7.194;2023-12-20T15:01:48;20.10;;;8.07;;
1390;SDS011;690;51.454;7.194;2023-12-20T15:04:15;12.87;;;7.73;;
1390;SDS011;690;51.454;7.194;2023-12-20T15:06:41;14.73;;;7.53;;
1390;SDS011;690;51.454;7.194;2023-12-20T15:09:09;11.63;;;8.10;;
1390;SDS011;690;51.454;7.194;2023-12-20T15:11:38;12.53;;;7.17;;
1390;SDS011;690;51.454;7.194;2023-12-20T15:14:05;15.03;;;7.73;;
1390;SDS011;690;51.454;7.194;2023-12-20T15:16:32;14.23;;;7.70;;
1390;SDS011;690;51.454;7.194;2023-12-20T15:19:01;15.23;;;7.50;;
1390;SDS011;690;51.454;7.194;2023-12-20T15:21:28;13.20;;;8.70;;